Terminal Aerodrome Forecast
Issued by NWS Green Bay, WI

Home | Current Version | Previous Version | Graphics & Text | Print | Product List | Glossary On
Versions: 1 2 3 4 5 6 7 8 9 10 11 12 13 14 15 16 17 18 19 20 21 22 23 24 25 26 27 28 29 30 31 32 33 34 35 36 37 38 39 40 41 42 43
000
FTUS43 KGRB 281133
TAFGRB
TAF
KGRB 281133Z 2812/2912 26003KT 4SM BR SCT008 BKN018
      TEMPO 2812/2814 2SM BR BKN008
     FM281400 28004KT 6SM BR BKN018
     FM281500 27004KT P6SM SCT021
     FM281900 19003KT P6SM SKC
     FM290600 17003KT 6SM BR FEW250
     FM290800 VRB03KT 3SM BR SCT250=

USA.gov is the U.S. government's official web portal to all federal, state and local government web resources and services.